PWSweather.com
Personal Weather Stations
Station Observations
KOHAVON11
Long Road Station, Avon, OH 44011

Long Road StationAvon, OH 44011

Lat: 41.437, Lon: -82.0477

Elevation: 686

Station Type: Davis Vantage Pro2

http://www.avon-weather.com

High Low Average
Temperature 41.8°F5.4°C 35.9°F2.2°C 38.8°F3.8°C
Dew Point 32.2°F0.1°C 28.2°F-2.1°C 30.4°F-0.9°C
Winds 23.0 mph 37.0 kmh 3.0 mph 4.8 kmh 9.0 mph WSW14.5 kmh WSW
Wind Gusts 31.0 mph49.9 kmh 11.0 mph17.7 kmh 18.0 mph29.0 kmh
Humidity 80% 68% 72%
Pressure 29.95 in1014.2 mb 29.65 in1004.1 mb -
Precipitation 0.00 in0.0 mm - -
Hour Temp Dew Point Humidity Winds Wind Gusts Pressure Precip Precip Rate Daily Precip Total
12:01 AM 41.8°F5.4°C 32.2°F0.1°C 69% 17.0 mph WSW27.4 kmh WSW 24.0 mph38.6 kmh 29.65 in1004.1 mb 0.00 in0.0 mm 0.00 in0.0 mm 0.00 in0.0 mm
12:06 AM 41.7°F5.4°C 32.1°F0.1°C 69% 14.0 mph WSW22.5 kmh WSW 24.0 mph38.6 kmh 29.65 in1004.1 mb 0.00 in0.0 mm 0.00 in0.0 mm 0.00 in0.0 mm
12:11 AM 41.6°F5.3°C 32.0°F0.0°C 69% 20.0 mph SW32.2 kmh SW 27.0 mph43.5 kmh 29.65 in1004.1 mb 0.00 in0.0 mm 0.00 in0.0 mm 0.00 in0.0 mm
12:16 AM 41.5°F5.3°C 31.9°F-0.1°C 69% 13.0 mph WSW20.9 kmh WSW 27.0 mph43.5 kmh 29.66 in1004.4 mb 0.00 in0.0 mm 0.00 in0.0 mm 0.00 in0.0 mm
12:21 AM 41.4°F5.2°C 32.2°F0.1°C 70% 23.0 mph W37.0 kmh W 27.0 mph43.5 kmh 29.66 in1004.4 mb 0.00 in0.0 mm 0.00 in0.0 mm 0.00 in0.0 mm
12:26 AM 41.2°F5.1°C 32.0°F0.0°C 70% 18.0 mph W29.0 kmh W 31.0 mph49.9 kmh 29.67 in1004.7 mb 0.00 in0.0 mm 0.00 in0.0 mm 0.00 in0.0 mm
12:31 AM 41.0°F5.0°C 31.8°F-0.1°C 70% 13.0 mph WSW20.9 kmh WSW 31.0 mph49.9 kmh 29.67 in1004.7 mb 0.00 in0.0 mm 0.00 in0.0 mm 0.00 in0.0 mm
12:36 AM 40.8°F4.9°C 31.6°F-0.2°C 70% 23.0 mph W37.0 kmh W 31.0 mph49.9 kmh 29.67 in1004.7 mb 0.00 in0.0 mm 0.00 in0.0 mm 0.00 in0.0 mm
12:41 AM 40.6°F4.8°C 31.5°F-0.3°C 70% 19.0 mph WSW30.6 kmh WSW 31.0 mph49.9 kmh 29.68 in1005.1 mb 0.00 in0.0 mm 0.00 in0.0 mm 0.00 in0.0 mm
12:46 AM 40.4°F4.7°C 31.6°F-0.2°C 71% 17.0 mph WSW27.4 kmh WSW 28.0 mph45.1 kmh 29.68 in1005.1 mb 0.00 in0.0 mm 0.00 in0.0 mm 0.00 in0.0 mm
12:51 AM 40.1°F4.5°C 31.3°F-0.4°C 71% 16.0 mph WSW25.7 kmh WSW 28.0 mph45.1 kmh 29.68 in1005.1 mb 0.00 in0.0 mm 0.00 in0.0 mm 0.00 in0.0 mm
12:56 AM 39.9°F4.4°C 31.1°F-0.5°C 71% 19.0 mph SW30.6 kmh SW 28.0 mph45.1 kmh 29.68 in1005.1 mb 0.00 in0.0 mm 0.00 in0.0 mm 0.00 in0.0 mm
01:01 AM 39.7°F4.3°C 31.0°F-0.6°C 71% 12.0 mph WSW19.3 kmh WSW 28.0 mph45.1 kmh 29.68 in1005.1 mb 0.00 in0.0 mm 0.00 in0.0 mm 0.00 in0.0 mm
01:06 AM 39.6°F4.2°C 31.2°F-0.4°C 72% 11.0 mph SW17.7 kmh SW 28.0 mph45.1 kmh 29.69 in1005.4 mb 0.00 in0.0 mm 0.00 in0.0 mm 0.00 in0.0 mm
01:11 AM 39.4°F4.1°C 31.0°F-0.6°C 72% 14.0 mph WSW22.5 kmh WSW 28.0 mph45.1 kmh 29.69 in1005.4 mb 0.00 in0.0 mm 0.00 in0.0 mm 0.00 in0.0 mm
01:16 AM 39.3°F4.1°C 30.9°F-0.6°C 72% 9.0 mph WNW14.5 kmh WNW 18.0 mph29.0 kmh 29.69 in1005.4 mb 0.00 in0.0 mm 0.00 in0.0 mm 0.00 in0.0 mm
01:21 AM 39.2°F4.0°C 31.2°F-0.4°C 73% 13.0 mph WSW20.9 kmh WSW 19.0 mph30.6 kmh 29.70 in1005.8 mb 0.00 in0.0 mm 0.00 in0.0 mm 0.00 in0.0 mm
01:26 AM 39.2°F4.0°C 31.2°F-0.4°C 73% 9.0 mph WSW14.5 kmh WSW 19.0 mph30.6 kmh 29.70 in1005.8 mb 0.00 in0.0 mm 0.00 in0.0 mm 0.00 in0.0 mm
01:31 AM 39.1°F3.9°C 31.4°F-0.3°C 74% 16.0 mph SW25.7 kmh SW 21.0 mph33.8 kmh 29.70 in1005.8 mb 0.00 in0.0 mm 0.00 in0.0 mm 0.00 in0.0 mm
01:36 AM 39.0°F3.9°C 31.3°F-0.4°C 74% 16.0 mph WSW25.7 kmh WSW 27.0 mph43.5 kmh 29.70 in1005.8 mb 0.00 in0.0 mm 0.00 in0.0 mm 0.00 in0.0 mm
01:41 AM 38.7°F3.7°C 30.7°F-0.7°C 73% 16.0 mph WSW25.7 kmh WSW 27.0 mph43.5 kmh 29.70 in1005.8 mb 0.00 in0.0 mm 0.00 in0.0 mm 0.00 in0.0 mm
01:46 AM 38.6°F3.7°C 30.6°F-0.8°C 73% 13.0 mph WSW20.9 kmh WSW 27.0 mph43.5 kmh 29.70 in1005.8 mb 0.00 in0.0 mm 0.00 in0.0 mm 0.00 in0.0 mm
01:51 AM 38.5°F3.6°C 30.5°F-0.8°C 73% 13.0 mph WSW20.9 kmh WSW 27.0 mph43.5 kmh 29.71 in1006.1 mb 0.00 in0.0 mm 0.00 in0.0 mm 0.00 in0.0 mm
01:56 AM 38.4°F3.6°C 30.1°F-1.1°C 72% 14.0 mph WSW22.5 kmh WSW 27.0 mph43.5 kmh 29.71 in1006.1 mb 0.00 in0.0 mm 0.00 in0.0 mm 0.00 in0.0 mm
02:01 AM 38.3°F3.5°C 30.0°F-1.1°C 72% 12.0 mph W19.3 kmh W 27.0 mph43.5 kmh 29.71 in1006.1 mb 0.00 in0.0 mm 0.00 in0.0 mm 0.00 in0.0 mm
02:06 AM 38.2°F3.4°C 29.9°F-1.2°C 72% 22.0 mph W35.4 kmh W 26.0 mph41.8 kmh 29.71 in1006.1 mb 0.00 in0.0 mm 0.00 in0.0 mm 0.00 in0.0 mm
02:11 AM 38.1°F3.4°C 29.4°F-1.4°C 71% 13.0 mph WSW20.9 kmh WSW 26.0 mph41.8 kmh 29.71 in1006.1 mb 0.00 in0.0 mm 0.00 in0.0 mm 0.00 in0.0 mm
02:16 AM 38.1°F3.4°C 29.4°F-1.4°C 71% 14.0 mph WNW22.5 kmh WNW 23.0 mph37.0 kmh 29.71 in1006.1 mb 0.00 in0.0 mm 0.00 in0.0 mm 0.00 in0.0 mm
02:21 AM 38.1°F3.4°C 29.4°F-1.4°C 71% 21.0 mph WNW33.8 kmh WNW 23.0 mph37.0 kmh 29.71 in1006.1 mb 0.00 in0.0 mm 0.00 in0.0 mm 0.00 in0.0 mm
02:26 AM 38.0°F3.3°C 29.0°F-1.7°C 70% 20.0 mph W32.2 kmh W 27.0 mph43.5 kmh 29.72 in1006.4 mb 0.00 in0.0 mm 0.00 in0.0 mm 0.00 in0.0 mm
02:31 AM 38.0°F3.3°C 28.6°F-1.9°C 69% 17.0 mph WSW27.4 kmh WSW 27.0 mph43.5 kmh 29.72 in1006.4 mb 0.00 in0.0 mm 0.00 in0.0 mm 0.00 in0.0 mm
02:36 AM 38.1°F3.4°C 28.7°F-1.8°C 69% 17.0 mph W27.4 kmh W 27.0 mph43.5 kmh 29.72 in1006.4 mb 0.00 in0.0 mm 0.00 in0.0 mm 0.00 in0.0 mm
02:41 AM 38.0°F3.3°C 28.6°F-1.9°C 69% 13.0 mph WSW20.9 kmh WSW 27.0 mph43.5 kmh 29.72 in1006.4 mb 0.00 in0.0 mm 0.00 in0.0 mm 0.00 in0.0 mm
02:46 AM 38.1°F3.4°C 28.7°F-1.8°C 69% 11.0 mph W17.7 kmh W 23.0 mph37.0 kmh 29.72 in1006.4 mb 0.00 in0.0 mm 0.00 in0.0 mm 0.00 in0.0 mm
02:51 AM 38.0°F3.3°C 29.0°F-1.7°C 70% 21.0 mph WSW33.8 kmh WSW 23.0 mph37.0 kmh 29.73 in1006.8 mb 0.00 in0.0 mm 0.00 in0.0 mm 0.00 in0.0 mm
02:56 AM 38.0°F3.3°C 29.0°F-1.7°C 70% 8.0 mph W12.9 kmh W 21.0 mph33.8 kmh 29.72 in1006.4 mb 0.00 in0.0 mm 0.00 in0.0 mm 0.00 in0.0 mm
03:01 AM 38.0°F3.3°C 29.0°F-1.7°C 70% 11.0 mph WSW17.7 kmh WSW 21.0 mph33.8 kmh 29.72 in1006.4 mb 0.00 in0.0 mm 0.00 in0.0 mm 0.00 in0.0 mm
03:06 AM 37.9°F3.3°C 28.9°F-1.7°C 70% 11.0 mph WSW17.7 kmh WSW 19.0 mph30.6 kmh 29.72 in1006.4 mb 0.00 in0.0 mm 0.00 in0.0 mm 0.00 in0.0 mm
03:11 AM 37.9°F3.3°C 28.9°F-1.7°C 70% 14.0 mph WSW22.5 kmh WSW 21.0 mph33.8 kmh 29.73 in1006.8 mb 0.00 in0.0 mm 0.00 in0.0 mm 0.00 in0.0 mm
03:16 AM 37.9°F3.3°C 28.9°F-1.7°C 70% 9.0 mph WSW14.5 kmh WSW 21.0 mph33.8 kmh 29.73 in1006.8 mb 0.00 in0.0 mm 0.00 in0.0 mm 0.00 in0.0 mm
03:21 AM 37.9°F3.3°C 28.9°F-1.7°C 70% 5.0 mph WNW8.0 kmh WNW 21.0 mph33.8 kmh 29.73 in1006.8 mb 0.00 in0.0 mm 0.00 in0.0 mm 0.00 in0.0 mm
03:26 AM 37.9°F3.3°C 28.9°F-1.7°C 70% 5.0 mph W8.0 kmh W 21.0 mph33.8 kmh 29.72 in1006.4 mb 0.00 in0.0 mm 0.00 in0.0 mm 0.00 in0.0 mm
03:31 AM 37.9°F3.3°C 28.9°F-1.7°C 70% 4.0 mph W6.4 kmh W 14.0 mph22.5 kmh 29.73 in1006.8 mb 0.00 in0.0 mm 0.00 in0.0 mm 0.00 in0.0 mm
03:36 AM 38.0°F3.3°C 29.0°F-1.7°C 70% 13.0 mph WSW20.9 kmh WSW 15.0 mph24.1 kmh 29.73 in1006.8 mb 0.00 in0.0 mm 0.00 in0.0 mm 0.00 in0.0 mm
03:41 AM 37.9°F3.3°C 28.9°F-1.7°C 70% 7.0 mph W11.3 kmh W 17.0 mph27.4 kmh 29.73 in1006.8 mb 0.00 in0.0 mm 0.00 in0.0 mm 0.00 in0.0 mm
03:46 AM 38.0°F3.3°C 29.0°F-1.7°C 70% 7.0 mph W11.3 kmh W 17.0 mph27.4 kmh 29.73 in1006.8 mb 0.00 in0.0 mm 0.00 in0.0 mm 0.00 in0.0 mm
03:51 AM 38.0°F3.3°C 29.0°F-1.7°C 70% 8.0 mph WSW12.9 kmh WSW 20.0 mph32.2 kmh 29.73 in1006.8 mb 0.00 in0.0 mm 0.00 in0.0 mm 0.00 in0.0 mm
03:56 AM 38.0°F3.3°C 29.0°F-1.7°C 70% 9.0 mph SW14.5 kmh SW 20.0 mph32.2 kmh 29.73 in1006.8 mb 0.00 in0.0 mm 0.00 in0.0 mm 0.00 in0.0 mm
04:01 AM 38.0°F3.3°C 29.0°F-1.7°C 70% 10.0 mph WSW16.1 kmh WSW 20.0 mph32.2 kmh 29.73 in1006.8 mb 0.00 in0.0 mm 0.00 in0.0 mm 0.00 in0.0 mm
04:06 AM 38.0°F3.3°C 29.3°F-1.5°C 71% 12.0 mph WSW19.3 kmh WSW 20.0 mph32.2 kmh 29.73 in1006.8 mb 0.00 in0.0 mm 0.00 in0.0 mm 0.00 in0.0 mm
04:11 AM 37.9°F3.3°C 29.2°F-1.6°C 71% 8.0 mph SW12.9 kmh SW 19.0 mph30.6 kmh 29.73 in1006.8 mb 0.00 in0.0 mm 0.00 in0.0 mm 0.00 in0.0 mm
04:16 AM 37.9°F3.3°C 29.6°F-1.3°C 72% 7.0 mph SW11.3 kmh SW 19.0 mph30.6 kmh 29.73 in1006.8 mb 0.00 in0.0 mm 0.00 in0.0 mm 0.00 in0.0 mm
04:21 AM 37.8°F3.2°C 29.8°F-1.2°C 73% 9.0 mph W14.5 kmh W 16.0 mph25.7 kmh 29.73 in1006.8 mb 0.00 in0.0 mm 0.00 in0.0 mm 0.00 in0.0 mm
04:26 AM 37.7°F3.2°C 29.7°F-1.3°C 73% 6.0 mph WSW9.7 kmh WSW 16.0 mph25.7 kmh 29.73 in1006.8 mb 0.00 in0.0 mm 0.00 in0.0 mm 0.00 in0.0 mm
04:31 AM 37.7°F3.2°C 30.1°F-1.1°C 74% 11.0 mph WSW17.7 kmh WSW 18.0 mph29.0 kmh 29.73 in1006.8 mb 0.00 in0.0 mm 0.00 in0.0 mm 0.00 in0.0 mm
04:36 AM 37.6°F3.1°C 30.0°F-1.1°C 74% 7.0 mph WSW11.3 kmh WSW 18.0 mph29.0 kmh 29.73 in1006.8 mb 0.00 in0.0 mm 0.00 in0.0 mm 0.00 in0.0 mm
04:41 AM 37.6°F3.1°C 30.0°F-1.1°C 74% 13.0 mph WSW20.9 kmh WSW 18.0 mph29.0 kmh 29.73 in1006.8 mb 0.00 in0.0 mm 0.00 in0.0 mm 0.00 in0.0 mm
04:46 AM 37.5°F3.1°C 29.9°F-1.2°C 74% 14.0 mph W22.5 kmh W 29.0 mph46.7 kmh 29.73 in1006.8 mb 0.00 in0.0 mm 0.00 in0.0 mm 0.00 in0.0 mm
04:51 AM 37.4°F3.0°C 29.1°F-1.6°C 72% 12.0 mph SW19.3 kmh SW 29.0 mph46.7 kmh 29.73 in1006.8 mb 0.00 in0.0 mm 0.00 in0.0 mm 0.00 in0.0 mm
04:56 AM 37.5°F3.1°C 29.2°F-1.6°C 72% 10.0 mph W16.1 kmh W 29.0 mph46.7 kmh 29.73 in1006.8 mb 0.00 in0.0 mm 0.00 in0.0 mm 0.00 in0.0 mm
05:01 AM 37.4°F3.0°C 29.1°F-1.6°C 72% 11.0 mph W17.7 kmh W 29.0 mph46.7 kmh 29.73 in1006.8 mb 0.00 in0.0 mm 0.00 in0.0 mm 0.00 in0.0 mm
05:06 AM 37.4°F3.0°C 29.1°F-1.6°C 72% 14.0 mph WSW22.5 kmh WSW 16.0 mph25.7 kmh 29.73 in1006.8 mb 0.00 in0.0 mm 0.00 in0.0 mm 0.00 in0.0 mm
05:11 AM 37.3°F2.9°C 29.0°F-1.7°C 72% 16.0 mph W25.7 kmh W 18.0 mph29.0 kmh 29.73 in1006.8 mb 0.00 in0.0 mm 0.00 in0.0 mm 0.00 in0.0 mm
05:16 AM 37.3°F2.9°C 29.0°F-1.7°C 72% 8.0 mph WSW12.9 kmh WSW 18.0 mph29.0 kmh 29.73 in1006.8 mb 0.00 in0.0 mm 0.00 in0.0 mm 0.00 in0.0 mm
05:21 AM 37.2°F2.9°C 28.9°F-1.7°C 72% 9.0 mph W14.5 kmh W 18.0 mph29.0 kmh 29.73 in1006.8 mb 0.00 in0.0 mm 0.00 in0.0 mm 0.00 in0.0 mm
05:26 AM 37.2°F2.9°C 28.9°F-1.7°C 72% 3.0 mph SW4.8 kmh SW 18.0 mph29.0 kmh 29.73 in1006.8 mb 0.00 in0.0 mm 0.00 in0.0 mm 0.00 in0.0 mm
05:31 AM 37.2°F2.9°C 28.6°F-1.9°C 71% 5.0 mph SW8.0 kmh SW 14.0 mph22.5 kmh 29.73 in1006.8 mb 0.00 in0.0 mm 0.00 in0.0 mm 0.00 in0.0 mm
05:36 AM 37.2°F2.9°C 28.6°F-1.9°C 71% 8.0 mph WSW12.9 kmh WSW 14.0 mph22.5 kmh 29.73 in1006.8 mb 0.00 in0.0 mm 0.00 in0.0 mm 0.00 in0.0 mm
05:41 AM 37.2°F2.9°C 28.6°F-1.9°C 71% 6.0 mph SSW9.7 kmh SSW 13.0 mph20.9 kmh 29.73 in1006.8 mb 0.00 in0.0 mm 0.00 in0.0 mm 0.00 in0.0 mm
05:46 AM 37.2°F2.9°C 28.6°F-1.9°C 71% 6.0 mph WSW9.7 kmh WSW 13.0 mph20.9 kmh 29.74 in1007.1 mb 0.00 in0.0 mm 0.00 in0.0 mm 0.00 in0.0 mm
05:51 AM 37.2°F2.9°C 28.6°F-1.9°C 71% 7.0 mph WSW11.3 kmh WSW 13.0 mph20.9 kmh 29.74 in1007.1 mb 0.00 in0.0 mm 0.00 in0.0 mm 0.00 in0.0 mm
05:56 AM 37.2°F2.9°C 28.2°F-2.1°C 70% 4.0 mph SW6.4 kmh SW 13.0 mph20.9 kmh 29.74 in1007.1 mb 0.00 in0.0 mm 0.00 in0.0 mm 0.00 in0.0 mm
06:01 AM 37.2°F2.9°C 28.2°F-2.1°C 70% 6.0 mph WSW9.7 kmh WSW 14.0 mph22.5 kmh 29.75 in1007.5 mb 0.00 in0.0 mm 0.00 in0.0 mm 0.00 in0.0 mm
06:06 AM 37.2°F2.9°C 28.2°F-2.1°C 70% 5.0 mph SW8.0 kmh SW 14.0 mph22.5 kmh 29.75 in1007.5 mb 0.00 in0.0 mm 0.00 in0.0 mm 0.00 in0.0 mm
06:11 AM 37.2°F2.9°C 28.6°F-1.9°C 71% 5.0 mph WSW8.0 kmh WSW 14.0 mph22.5 kmh 29.75 in1007.5 mb 0.00 in0.0 mm 0.00 in0.0 mm 0.00 in0.0 mm
06:16 AM 37.2°F2.9°C 28.6°F-1.9°C 71% 10.0 mph WSW16.1 kmh WSW 14.0 mph22.5 kmh 29.75 in1007.5 mb 0.00 in0.0 mm 0.00 in0.0 mm 0.00 in0.0 mm
06:21 AM 37.2°F2.9°C 28.6°F-1.9°C 71% 5.0 mph SW8.0 kmh SW 13.0 mph20.9 kmh 29.75 in1007.5 mb 0.00 in0.0 mm 0.00 in0.0 mm 0.00 in0.0 mm
06:26 AM 37.1°F2.8°C 28.8°F-1.8°C 72% 7.0 mph SW11.3 kmh SW 15.0 mph24.1 kmh 29.75 in1007.5 mb 0.00 in0.0 mm 0.00 in0.0 mm 0.00 in0.0 mm
06:31 AM 37.0°F2.8°C 29.1°F-1.6°C 73% 4.0 mph WSW6.4 kmh WSW 15.0 mph24.1 kmh 29.76 in1007.8 mb 0.00 in0.0 mm 0.00 in0.0 mm 0.00 in0.0 mm
06:36 AM 36.9°F2.7°C 29.3°F-1.5°C 74% 6.0 mph SSW9.7 kmh SSW 15.0 mph24.1 kmh 29.76 in1007.8 mb 0.00 in0.0 mm 0.00 in0.0 mm 0.00 in0.0 mm
06:41 AM 36.7°F2.6°C 29.1°F-1.6°C 74% 3.0 mph SW4.8 kmh SW 15.0 mph24.1 kmh 29.75 in1007.5 mb 0.00 in0.0 mm 0.00 in0.0 mm 0.00 in0.0 mm
06:46 AM 36.6°F2.6°C 29.0°F-1.7°C 74% 5.0 mph WSW8.0 kmh WSW 14.0 mph22.5 kmh 29.75 in1007.5 mb 0.00 in0.0 mm 0.00 in0.0 mm 0.00 in0.0 mm
06:51 AM 36.5°F2.5°C 29.3°F-1.5°C 75% 3.0 mph SW4.8 kmh SW 14.0 mph22.5 kmh 29.76 in1007.8 mb 0.00 in0.0 mm 0.00 in0.0 mm 0.00 in0.0 mm
06:56 AM 36.4°F2.4°C 29.5°F-1.4°C 76% 5.0 mph WSW8.0 kmh WSW 13.0 mph20.9 kmh 29.76 in1007.8 mb 0.00 in0.0 mm 0.00 in0.0 mm 0.00 in0.0 mm
07:01 AM 36.4°F2.4°C 29.8°F-1.2°C 77% 5.0 mph SW8.0 kmh SW 13.0 mph20.9 kmh 29.76 in1007.8 mb 0.00 in0.0 mm 0.00 in0.0 mm 0.00 in0.0 mm
07:06 AM 36.2°F2.3°C 30.0°F-1.1°C 78% 5.0 mph SW8.0 kmh SW 11.0 mph17.7 kmh 29.76 in1007.8 mb 0.00 in0.0 mm 0.00 in0.0 mm 0.00 in0.0 mm
07:11 AM 36.1°F2.3°C 29.9°F-1.2°C 78% 6.0 mph WSW9.7 kmh WSW 11.0 mph17.7 kmh 29.76 in1007.8 mb 0.00 in0.0 mm 0.00 in0.0 mm 0.00 in0.0 mm
07:16 AM 36.0°F2.2°C 30.1°F-1.1°C 79% 4.0 mph SW6.4 kmh SW 11.0 mph17.7 kmh 29.77 in1008.1 mb 0.00 in0.0 mm 0.00 in0.0 mm 0.00 in0.0 mm
07:21 AM 35.9°F2.2°C 30.0°F-1.1°C 79% 5.0 mph SSW8.0 kmh SSW 13.0 mph20.9 kmh 29.77 in1008.1 mb 0.00 in0.0 mm 0.00 in0.0 mm 0.00 in0.0 mm
07:26 AM 35.9°F2.2°C 30.0°F-1.1°C 79% 5.0 mph SW8.0 kmh SW 13.0 mph20.9 kmh 29.77 in1008.1 mb 0.00 in0.0 mm 0.00 in0.0 mm 0.00 in0.0 mm
07:31 AM 35.9°F2.2°C 30.0°F-1.1°C 79% 4.0 mph SW6.4 kmh SW 13.0 mph20.9 kmh 29.77 in1008.1 mb 0.00 in0.0 mm 0.00 in0.0 mm 0.00 in0.0 mm
07:36 AM 35.9°F2.2°C 30.0°F-1.1°C 79% 5.0 mph SW8.0 kmh SW 13.0 mph20.9 kmh 29.77 in1008.1 mb 0.00 in0.0 mm 0.00 in0.0 mm 0.00 in0.0 mm
07:41 AM 35.9°F2.2°C 30.3°F-0.9°C 80% 5.0 mph SW8.0 kmh SW 11.0 mph17.7 kmh 29.77 in1008.1 mb 0.00 in0.0 mm 0.00 in0.0 mm 0.00 in0.0 mm
07:46 AM 36.0°F2.2°C 30.1°F-1.1°C 79% 12.0 mph S19.3 kmh S 12.0 mph19.3 kmh 29.77 in1008.1 mb 0.00 in0.0 mm 0.00 in0.0 mm 0.00 in0.0 mm
07:51 AM 36.0°F2.2°C 30.1°F-1.1°C 79% 6.0 mph WSW9.7 kmh WSW 12.0 mph19.3 kmh 29.77 in1008.1 mb 0.00 in0.0 mm 0.00 in0.0 mm 0.00 in0.0 mm
07:56 AM 36.0°F2.2°C 30.1°F-1.1°C 79% 4.0 mph SW6.4 kmh SW 12.0 mph19.3 kmh 29.77 in1008.1 mb 0.00 in0.0 mm 0.00 in0.0 mm 0.00 in0.0 mm
08:01 AM 36.0°F2.2°C 30.1°F-1.1°C 79% 4.0 mph SW6.4 kmh SW 12.0 mph19.3 kmh 29.77 in1008.1 mb 0.00 in0.0 mm 0.00 in0.0 mm 0.00 in0.0 mm
08:06 AM 36.1°F2.3°C 29.9°F-1.2°C 78% 4.0 mph WSW6.4 kmh WSW 12.0 mph19.3 kmh 29.77 in1008.1 mb 0.00 in0.0 mm 0.00 in0.0 mm 0.00 in0.0 mm
08:11 AM 36.2°F2.3°C 30.0°F-1.1°C 78% 4.0 mph WSW6.4 kmh WSW 12.0 mph19.3 kmh 29.77 in1008.1 mb 0.00 in0.0 mm 0.00 in0.0 mm 0.00 in0.0 mm
08:16 AM 36.2°F2.3°C 30.0°F-1.1°C 78% 6.0 mph SW9.7 kmh SW 12.0 mph19.3 kmh 29.77 in1008.1 mb 0.00 in0.0 mm 0.00 in0.0 mm 0.00 in0.0 mm
08:21 AM 36.3°F2.4°C 29.7°F-1.3°C 77% 5.0 mph SW8.0 kmh SW 12.0 mph19.3 kmh 29.77 in1008.1 mb 0.00 in0.0 mm 0.00 in0.0 mm 0.00 in0.0 mm
08:26 AM 36.4°F2.4°C 29.8°F-1.2°C 77% 5.0 mph WSW8.0 kmh WSW 12.0 mph19.3 kmh 29.77 in1008.1 mb 0.00 in0.0 mm 0.00 in0.0 mm 0.00 in0.0 mm
08:31 AM 36.4°F2.4°C 29.5°F-1.4°C 76% 4.0 mph WSW6.4 kmh WSW 12.0 mph19.3 kmh 29.77 in1008.1 mb 0.00 in0.0 mm 0.00 in0.0 mm 0.00 in0.0 mm
08:36 AM 36.5°F2.5°C 29.6°F-1.3°C 76% 5.0 mph SW8.0 kmh SW 12.0 mph19.3 kmh 29.77 in1008.1 mb 0.00 in0.0 mm 0.00 in0.0 mm 0.00 in0.0 mm
08:41 AM 36.6°F2.6°C 29.7°F-1.3°C 76% 5.0 mph WSW8.0 kmh WSW 12.0 mph19.3 kmh 29.77 in1008.1 mb 0.00 in0.0 mm 0.00 in0.0 mm 0.00 in0.0 mm
08:46 AM 36.7°F2.6°C 29.8°F-1.2°C 76% 5.0 mph SW8.0 kmh SW 13.0 mph20.9 kmh 29.77 in1008.1 mb 0.00 in0.0 mm 0.00 in0.0 mm 0.00 in0.0 mm
08:51 AM 36.7°F2.6°C 29.8°F-1.2°C 76% 5.0 mph SW8.0 kmh SW 13.0 mph20.9 kmh 29.77 in1008.1 mb 0.00 in0.0 mm 0.00 in0.0 mm 0.00 in0.0 mm
08:56 AM 36.9°F2.7°C 29.6°F-1.3°C 75% 7.0 mph S11.3 kmh S 13.0 mph20.9 kmh 29.77 in1008.1 mb 0.00 in0.0 mm 0.00 in0.0 mm 0.00 in0.0 mm
09:01 AM 37.0°F2.8°C 29.7°F-1.3°C 75% 5.0 mph WSW8.0 kmh WSW 13.0 mph20.9 kmh 29.77 in1008.1 mb 0.00 in0.0 mm 0.00 in0.0 mm 0.00 in0.0 mm
09:06 AM 37.1°F2.8°C 29.8°F-1.2°C 75% 6.0 mph WSW9.7 kmh WSW 13.0 mph20.9 kmh 29.77 in1008.1 mb 0.00 in0.0 mm 0.00 in0.0 mm 0.00 in0.0 mm
09:11 AM 37.2°F2.9°C 29.6°F-1.3°C 74% 10.0 mph SW16.1 kmh SW 13.0 mph20.9 kmh 29.78 in1008.5 mb 0.00 in0.0 mm 0.00 in0.0 mm 0.00 in0.0 mm
09:16 AM 37.3°F2.9°C 29.7°F-1.3°C 74% 9.0 mph SW14.5 kmh SW 12.0 mph19.3 kmh 29.77 in1008.1 mb 0.00 in0.0 mm 0.00 in0.0 mm 0.00 in0.0 mm
09:21 AM 37.4°F3.0°C 29.4°F-1.4°C 73% 5.0 mph SW8.0 kmh SW 14.0 mph22.5 kmh 29.77 in1008.1 mb 0.00 in0.0 mm 0.00 in0.0 mm 0.00 in0.0 mm
09:26 AM 37.6°F3.1°C 29.6°F-1.3°C 73% 5.0 mph W8.0 kmh W 16.0 mph25.7 kmh 29.77 in1008.1 mb 0.00 in0.0 mm 0.00 in0.0 mm 0.00 in0.0 mm
09:31 AM 37.9°F3.3°C 29.9°F-1.2°C 73% 5.0 mph WSW8.0 kmh WSW 16.0 mph25.7 kmh 29.77 in1008.1 mb 0.00 in0.0 mm 0.00 in0.0 mm 0.00 in0.0 mm
09:36 AM 38.0°F3.3°C 29.7°F-1.3°C 72% 7.0 mph WSW11.3 kmh WSW 16.0 mph25.7 kmh 29.78 in1008.5 mb 0.00 in0.0 mm 0.00 in0.0 mm 0.00 in0.0 mm
09:41 AM 38.0°F3.3°C 29.3°F-1.5°C 71% 6.0 mph SW9.7 kmh SW 16.0 mph25.7 kmh 29.78 in1008.5 mb 0.00 in0.0 mm 0.00 in0.0 mm 0.00 in0.0 mm
09:46 AM 38.1°F3.4°C 29.8°F-1.2°C 72% 7.0 mph WSW11.3 kmh WSW 14.0 mph22.5 kmh 29.78 in1008.5 mb 0.00 in0.0 mm 0.00 in0.0 mm 0.00 in0.0 mm
09:51 AM 38.2°F3.4°C 29.5°F-1.4°C 71% 3.0 mph WSW4.8 kmh WSW 14.0 mph22.5 kmh 29.78 in1008.5 mb 0.00 in0.0 mm 0.00 in0.0 mm 0.00 in0.0 mm
09:56 AM 38.3°F3.5°C 29.6°F-1.3°C 71% 5.0 mph WSW8.0 kmh WSW 13.0 mph20.9 kmh 29.79 in1008.8 mb 0.00 in0.0 mm 0.00 in0.0 mm 0.00 in0.0 mm
10:01 AM 38.4°F3.6°C 29.3°F-1.5°C 70% 7.0 mph S11.3 kmh S 13.0 mph20.9 kmh 29.79 in1008.8 mb 0.00 in0.0 mm 0.00 in0.0 mm 0.00 in0.0 mm
10:06 AM 38.5°F3.6°C 29.4°F-1.4°C 70% 6.0 mph SW9.7 kmh SW 13.0 mph20.9 kmh 29.79 in1008.8 mb 0.00 in0.0 mm 0.00 in0.0 mm 0.00 in0.0 mm
10:11 AM 38.6°F3.7°C 29.5°F-1.4°C 70% 9.0 mph SW14.5 kmh SW 17.0 mph27.4 kmh 29.79 in1008.8 mb 0.00 in0.0 mm 0.00 in0.0 mm 0.00 in0.0 mm
10:16 AM 38.6°F3.7°C 29.2°F-1.6°C 69% 5.0 mph SW8.0 kmh SW 17.0 mph27.4 kmh 29.79 in1008.8 mb 0.00 in0.0 mm 0.00 in0.0 mm 0.00 in0.0 mm
10:21 AM 38.7°F3.7°C 29.6°F-1.3°C 70% 5.0 mph SW8.0 kmh SW 17.0 mph27.4 kmh 29.79 in1008.8 mb 0.00 in0.0 mm 0.00 in0.0 mm 0.00 in0.0 mm
10:26 AM 38.9°F3.8°C 29.8°F-1.2°C 70% 8.0 mph SW12.9 kmh SW 17.0 mph27.4 kmh 29.79 in1008.8 mb 0.00 in0.0 mm 0.00 in0.0 mm 0.00 in0.0 mm
10:31 AM 38.9°F3.8°C 29.8°F-1.2°C 70% 4.0 mph SW6.4 kmh SW 14.0 mph22.5 kmh 29.80 in1009.1 mb 0.00 in0.0 mm 0.00 in0.0 mm 0.00 in0.0 mm
10:36 AM 38.9°F3.8°C 29.8°F-1.2°C 70% 6.0 mph SW9.7 kmh SW 17.0 mph27.4 kmh 29.80 in1009.1 mb 0.00 in0.0 mm 0.00 in0.0 mm 0.00 in0.0 mm
10:41 AM 38.9°F3.8°C 29.8°F-1.2°C 70% 7.0 mph W11.3 kmh W 17.0 mph27.4 kmh 29.80 in1009.1 mb 0.00 in0.0 mm 0.00 in0.0 mm 0.00 in0.0 mm
10:46 AM 38.8°F3.8°C 29.7°F-1.3°C 70% 8.0 mph W12.9 kmh W 19.0 mph30.6 kmh 29.80 in1009.1 mb 0.00 in0.0 mm 0.00 in0.0 mm 0.00 in0.0 mm
10:51 AM 38.8°F3.8°C 29.7°F-1.3°C 70% 6.0 mph WSW9.7 kmh WSW 19.0 mph30.6 kmh 29.80 in1009.1 mb 0.00 in0.0 mm 0.00 in0.0 mm 0.00 in0.0 mm
10:56 AM 38.8°F3.8°C 29.7°F-1.3°C 70% 17.0 mph WSW27.4 kmh WSW 19.0 mph30.6 kmh 29.80 in1009.1 mb 0.00 in0.0 mm 0.00 in0.0 mm 0.00 in0.0 mm
11:01 AM 38.8°F3.8°C 29.7°F-1.3°C 70% 5.0 mph WSW8.0 kmh WSW 19.0 mph30.6 kmh 29.80 in1009.1 mb 0.00 in0.0 mm 0.00 in0.0 mm 0.00 in0.0 mm
11:06 AM 38.8°F3.8°C 29.7°F-1.3°C 70% 6.0 mph W9.7 kmh W 17.0 mph27.4 kmh 29.80 in1009.1 mb 0.00 in0.0 mm 0.00 in0.0 mm 0.00 in0.0 mm
11:11 AM 38.8°F3.8°C 29.7°F-1.3°C 70% 6.0 mph SW9.7 kmh SW 17.0 mph27.4 kmh 29.80 in1009.1 mb 0.00 in0.0 mm 0.00 in0.0 mm 0.00 in0.0 mm
11:16 AM 38.9°F3.8°C 29.8°F-1.2°C 70% 11.0 mph WSW17.7 kmh WSW 16.0 mph25.7 kmh 29.80 in1009.1 mb 0.00 in0.0 mm 0.00 in0.0 mm 0.00 in0.0 mm
11:21 AM 38.9°F3.8°C 29.8°F-1.2°C 70% 7.0 mph SW11.3 kmh SW 16.0 mph25.7 kmh 29.80 in1009.1 mb 0.00 in0.0 mm 0.00 in0.0 mm 0.00 in0.0 mm
11:26 AM 39.0°F3.9°C 29.9°F-1.2°C 70% 7.0 mph WSW11.3 kmh WSW 17.0 mph27.4 kmh 29.80 in1009.1 mb 0.00 in0.0 mm 0.00 in0.0 mm 0.00 in0.0 mm
11:31 AM 39.1°F3.9°C 30.0°F-1.1°C 70% 7.0 mph WSW11.3 kmh WSW 17.0 mph27.4 kmh 29.79 in1008.8 mb 0.00 in0.0 mm 0.00 in0.0 mm 0.00 in0.0 mm
11:36 AM 39.1°F3.9°C 30.0°F-1.1°C 70% 6.0 mph SW9.7 kmh SW 17.0 mph27.4 kmh 29.79 in1008.8 mb 0.00 in0.0 mm 0.00 in0.0 mm 0.00 in0.0 mm
11:41 AM 39.2°F4.0°C 30.1°F-1.1°C 70% 6.0 mph WSW9.7 kmh WSW 17.0 mph27.4 kmh 29.80 in1009.1 mb 0.00 in0.0 mm 0.00 in0.0 mm 0.00 in0.0 mm
11:46 AM 39.2°F4.0°C 30.5°F-0.8°C 71% 12.0 mph SW19.3 kmh SW 19.0 mph30.6 kmh 29.80 in1009.1 mb 0.00 in0.0 mm 0.00 in0.0 mm 0.00 in0.0 mm
11:51 AM 39.2°F4.0°C 30.1°F-1.1°C 70% 11.0 mph SW17.7 kmh SW 19.0 mph30.6 kmh 29.79 in1008.8 mb 0.00 in0.0 mm 0.00 in0.0 mm 0.00 in0.0 mm
11:56 AM 39.3°F4.1°C 30.2°F-1.0°C 70% 7.0 mph WSW11.3 kmh WSW 19.0 mph30.6 kmh 29.80 in1009.1 mb 0.00 in0.0 mm 0.00 in0.0 mm 0.00 in0.0 mm
12:01 PM 39.4°F4.1°C 30.3°F-0.9°C 70% 8.0 mph SW12.9 kmh SW 19.0 mph30.6 kmh 29.79 in1008.8 mb 0.00 in0.0 mm 0.00 in0.0 mm 0.00 in0.0 mm
12:06 PM 39.6°F4.2°C 30.5°F-0.8°C 70% 16.0 mph WSW25.7 kmh WSW 19.0 mph30.6 kmh 29.79 in1008.8 mb 0.00 in0.0 mm 0.00 in0.0 mm 0.00 in0.0 mm
12:11 PM 39.7°F4.3°C 30.6°F-0.8°C 70% 6.0 mph WSW9.7 kmh WSW 23.0 mph37.0 kmh 29.80 in1009.1 mb 0.00 in0.0 mm 0.00 in0.0 mm 0.00 in0.0 mm
12:16 PM 39.8°F4.3°C 30.3°F-0.9°C 69% 16.0 mph WSW25.7 kmh WSW 23.0 mph37.0 kmh 29.80 in1009.1 mb 0.00 in0.0 mm 0.00 in0.0 mm 0.00 in0.0 mm
12:21 PM 39.8°F4.3°C 30.3°F-0.9°C 69% 16.0 mph WSW25.7 kmh WSW 23.0 mph37.0 kmh 29.80 in1009.1 mb 0.00 in0.0 mm 0.00 in0.0 mm 0.00 in0.0 mm
12:26 PM 39.8°F4.3°C 30.3°F-0.9°C 69% 11.0 mph W17.7 kmh W 23.0 mph37.0 kmh 29.80 in1009.1 mb 0.00 in0.0 mm 0.00 in0.0 mm 0.00 in0.0 mm
12:31 PM 39.8°F4.3°C 30.3°F-0.9°C 69% 19.0 mph SW30.6 kmh SW 22.0 mph35.4 kmh 29.80 in1009.1 mb 0.00 in0.0 mm 0.00 in0.0 mm 0.00 in0.0 mm
12:36 PM 39.9°F4.4°C 30.4°F-0.9°C 69% 6.0 mph SW9.7 kmh SW 24.0 mph38.6 kmh 29.80 in1009.1 mb 0.00 in0.0 mm 0.00 in0.0 mm 0.00 in0.0 mm
12:41 PM 40.1°F4.5°C 30.6°F-0.8°C 69% 10.0 mph WSW16.1 kmh WSW 24.0 mph38.6 kmh 29.80 in1009.1 mb 0.00 in0.0 mm 0.00 in0.0 mm 0.00 in0.0 mm
12:46 PM 40.0°F4.4°C 30.1°F-1.1°C 68% 6.0 mph WSW9.7 kmh WSW 24.0 mph38.6 kmh 29.80 in1009.1 mb 0.00 in0.0 mm 0.00 in0.0 mm 0.00 in0.0 mm
12:51 PM 40.1°F4.5°C 30.6°F-0.8°C 69% 12.0 mph SW19.3 kmh SW 24.0 mph38.6 kmh 29.80 in1009.1 mb 0.00 in0.0 mm 0.00 in0.0 mm 0.00 in0.0 mm
12:56 PM 40.1°F4.5°C 30.6°F-0.8°C 69% 9.0 mph WSW14.5 kmh WSW 17.0 mph27.4 kmh 29.80 in1009.1 mb 0.00 in0.0 mm 0.00 in0.0 mm 0.00 in0.0 mm
01:01 PM 40.1°F4.5°C 30.6°F-0.8°C 69% 12.0 mph SW19.3 kmh SW 17.0 mph27.4 kmh 29.80 in1009.1 mb 0.00 in0.0 mm 0.00 in0.0 mm 0.00 in0.0 mm
01:06 PM 40.2°F4.6°C 30.7°F-0.7°C 69% 9.0 mph WSW14.5 kmh WSW 17.0 mph27.4 kmh 29.80 in1009.1 mb 0.00 in0.0 mm 0.00 in0.0 mm 0.00 in0.0 mm
01:11 PM 40.1°F4.5°C 30.6°F-0.8°C 69% 8.0 mph WSW12.9 kmh WSW 17.0 mph27.4 kmh 29.80 in1009.1 mb 0.00 in0.0 mm 0.00 in0.0 mm 0.00 in0.0 mm
01:16 PM 40.1°F4.5°C 30.6°F-0.8°C 69% 5.0 mph SW8.0 kmh SW 17.0 mph27.4 kmh 29.80 in1009.1 mb 0.00 in0.0 mm 0.00 in0.0 mm 0.00 in0.0 mm
01:21 PM 40.1°F4.5°C 30.6°F-0.8°C 69% 8.0 mph WSW12.9 kmh WSW 17.0 mph27.4 kmh 29.80 in1009.1 mb 0.00 in0.0 mm 0.00 in0.0 mm 0.00 in0.0 mm
01:26 PM 40.0°F4.4°C 30.5°F-0.8°C 69% 7.0 mph WSW11.3 kmh WSW 16.0 mph25.7 kmh 29.80 in1009.1 mb 0.00 in0.0 mm 0.00 in0.0 mm 0.00 in0.0 mm
01:31 PM 40.0°F4.4°C 30.5°F-0.8°C 69% 13.0 mph WSW20.9 kmh WSW 16.0 mph25.7 kmh 29.80 in1009.1 mb 0.00 in0.0 mm 0.00 in0.0 mm 0.00 in0.0 mm
01:36 PM 40.0°F4.4°C 30.5°F-0.8°C 69% 9.0 mph WSW14.5 kmh WSW 15.0 mph24.1 kmh 29.80 in1009.1 mb 0.00 in0.0 mm 0.00 in0.0 mm 0.00 in0.0 mm
01:41 PM 40.1°F4.5°C 30.6°F-0.8°C 69% 11.0 mph SW17.7 kmh SW 15.0 mph24.1 kmh 29.80 in1009.1 mb 0.00 in0.0 mm 0.00 in0.0 mm 0.00 in0.0 mm
01:46 PM 40.3°F4.6°C 30.8°F-0.7°C 69% 7.0 mph SW11.3 kmh SW 16.0 mph25.7 kmh 29.80 in1009.1 mb 0.00 in0.0 mm 0.00 in0.0 mm 0.00 in0.0 mm
01:51 PM 40.4°F4.7°C 30.9°F-0.6°C 69% 8.0 mph W12.9 kmh W 16.0 mph25.7 kmh 29.80 in1009.1 mb 0.00 in0.0 mm 0.00 in0.0 mm 0.00 in0.0 mm
01:56 PM 40.5°F4.7°C 30.6°F-0.8°C 68% 7.0 mph WSW11.3 kmh WSW 16.0 mph25.7 kmh 29.80 in1009.1 mb 0.00 in0.0 mm 0.00 in0.0 mm 0.00 in0.0 mm
02:01 PM 40.6°F4.8°C 30.7°F-0.7°C 68% 7.0 mph WSW11.3 kmh WSW 16.0 mph25.7 kmh 29.80 in1009.1 mb 0.00 in0.0 mm 0.00 in0.0 mm 0.00 in0.0 mm
02:06 PM 40.6°F4.8°C 30.7°F-0.7°C 68% 4.0 mph WSW6.4 kmh WSW 15.0 mph24.1 kmh 29.81 in1009.5 mb 0.00 in0.0 mm 0.00 in0.0 mm 0.00 in0.0 mm
02:11 PM 40.7°F4.8°C 30.8°F-0.7°C 68% 4.0 mph WSW6.4 kmh WSW 15.0 mph24.1 kmh 29.81 in1009.5 mb 0.00 in0.0 mm 0.00 in0.0 mm 0.00 in0.0 mm
02:16 PM 40.6°F4.8°C 30.7°F-0.7°C 68% 4.0 mph SW6.4 kmh SW 13.0 mph20.9 kmh 29.81 in1009.5 mb 0.00 in0.0 mm 0.00 in0.0 mm 0.00 in0.0 mm
02:21 PM 40.5°F4.7°C 31.0°F-0.6°C 69% 6.0 mph SW9.7 kmh SW 13.0 mph20.9 kmh 29.81 in1009.5 mb 0.00 in0.0 mm 0.00 in0.0 mm 0.00 in0.0 mm
02:26 PM 40.4°F4.7°C 30.5°F-0.8°C 68% 11.0 mph WSW17.7 kmh WSW 15.0 mph24.1 kmh 29.81 in1009.5 mb 0.00 in0.0 mm 0.00 in0.0 mm 0.00 in0.0 mm
02:31 PM 40.4°F4.7°C 30.5°F-0.8°C 68% 8.0 mph WSW12.9 kmh WSW 18.0 mph29.0 kmh 29.82 in1009.8 mb 0.00 in0.0 mm 0.00 in0.0 mm 0.00 in0.0 mm
02:36 PM 40.3°F4.6°C 30.4°F-0.9°C 68% 8.0 mph SW12.9 kmh SW 18.0 mph29.0 kmh 29.82 in1009.8 mb 0.00 in0.0 mm 0.00 in0.0 mm 0.00 in0.0 mm
02:41 PM 40.3°F4.6°C 30.4°F-0.9°C 68% 8.0 mph WSW12.9 kmh WSW 18.0 mph29.0 kmh 29.82 in1009.8 mb 0.00 in0.0 mm 0.00 in0.0 mm 0.00 in0.0 mm
02:46 PM 40.4°F4.7°C 30.5°F-0.8°C 68% 7.0 mph SW11.3 kmh SW 18.0 mph29.0 kmh 29.82 in1009.8 mb 0.00 in0.0 mm 0.00 in0.0 mm 0.00 in0.0 mm
02:51 PM 40.4°F4.7°C 30.9°F-0.6°C 69% 9.0 mph WSW14.5 kmh WSW 16.0 mph25.7 kmh 29.82 in1009.8 mb 0.00 in0.0 mm 0.00 in0.0 mm 0.00 in0.0 mm
02:56 PM 40.4°F4.7°C 30.5°F-0.8°C 68% 9.0 mph W14.5 kmh W 18.0 mph29.0 kmh 29.82 in1009.8 mb 0.00 in0.0 mm 0.00 in0.0 mm 0.00 in0.0 mm
03:01 PM 40.4°F4.7°C 30.5°F-0.8°C 68% 9.0 mph WSW14.5 kmh WSW 18.0 mph29.0 kmh 29.82 in1009.8 mb 0.00 in0.0 mm 0.00 in0.0 mm 0.00 in0.0 mm
03:06 PM 40.4°F4.7°C 30.5°F-0.8°C 68% 6.0 mph SW9.7 kmh SW 18.0 mph29.0 kmh 29.82 in1009.8 mb 0.00 in0.0 mm 0.00 in0.0 mm 0.00 in0.0 mm
03:11 PM 40.4°F4.7°C 30.5°F-0.8°C 68% 12.0 mph SW19.3 kmh SW 21.0 mph33.8 kmh 29.82 in1009.8 mb 0.00 in0.0 mm 0.00 in0.0 mm 0.00 in0.0 mm
03:16 PM 40.4°F4.7°C 30.5°F-0.8°C 68% 6.0 mph SW9.7 kmh SW 21.0 mph33.8 kmh 29.82 in1009.8 mb 0.00 in0.0 mm 0.00 in0.0 mm 0.00 in0.0 mm
03:21 PM 40.4°F4.7°C 30.5°F-0.8°C 68% 5.0 mph SW8.0 kmh SW 21.0 mph33.8 kmh 29.82 in1009.8 mb 0.00 in0.0 mm 0.00 in0.0 mm 0.00 in0.0 mm
03:26 PM 40.4°F4.7°C 30.5°F-0.8°C 68% 8.0 mph SW12.9 kmh SW 21.0 mph33.8 kmh 29.83 in1010.2 mb 0.00 in0.0 mm 0.00 in0.0 mm 0.00 in0.0 mm
03:31 PM 40.5°F4.7°C 30.6°F-0.8°C 68% 6.0 mph W9.7 kmh W 14.0 mph22.5 kmh 29.83 in1010.2 mb 0.00 in0.0 mm 0.00 in0.0 mm 0.00 in0.0 mm
03:36 PM 40.5°F4.7°C 30.6°F-0.8°C 68% 6.0 mph SW9.7 kmh SW 16.0 mph25.7 kmh 29.83 in1010.2 mb 0.00 in0.0 mm 0.00 in0.0 mm 0.00 in0.0 mm
03:41 PM 40.4°F4.7°C 30.5°F-0.8°C 68% 11.0 mph WSW17.7 kmh WSW 16.0 mph25.7 kmh 29.84 in1010.5 mb 0.00 in0.0 mm 0.00 in0.0 mm 0.00 in0.0 mm
03:46 PM 40.4°F4.7°C 30.5°F-0.8°C 68% 9.0 mph WSW14.5 kmh WSW 16.0 mph25.7 kmh 29.84 in1010.5 mb 0.00 in0.0 mm 0.00 in0.0 mm 0.00 in0.0 mm
03:51 PM 40.4°F4.7°C 30.9°F-0.6°C 69% 7.0 mph WSW11.3 kmh WSW 16.0 mph25.7 kmh 29.84 in1010.5 mb 0.00 in0.0 mm 0.00 in0.0 mm 0.00 in0.0 mm
03:56 PM 40.3°F4.6°C 30.4°F-0.9°C 68% 7.0 mph WSW11.3 kmh WSW 19.0 mph30.6 kmh 29.84 in1010.5 mb 0.00 in0.0 mm 0.00 in0.0 mm 0.00 in0.0 mm
04:01 PM 40.3°F4.6°C 30.4°F-0.9°C 68% 5.0 mph WSW8.0 kmh WSW 19.0 mph30.6 kmh 29.85 in1010.8 mb 0.00 in0.0 mm 0.00 in0.0 mm 0.00 in0.0 mm
04:06 PM 40.3°F4.6°C 30.8°F-0.7°C 69% 6.0 mph WSW9.7 kmh WSW 19.0 mph30.6 kmh 29.85 in1010.8 mb 0.00 in0.0 mm 0.00 in0.0 mm 0.00 in0.0 mm
04:11 PM 40.3°F4.6°C 30.8°F-0.7°C 69% 6.0 mph WSW9.7 kmh WSW 19.0 mph30.6 kmh 29.85 in1010.8 mb 0.00 in0.0 mm 0.00 in0.0 mm 0.00 in0.0 mm
04:16 PM 40.2°F4.6°C 30.7°F-0.7°C 69% 10.0 mph WSW16.1 kmh WSW 15.0 mph24.1 kmh 29.85 in1010.8 mb 0.00 in0.0 mm 0.00 in0.0 mm 0.00 in0.0 mm
04:21 PM 40.2°F4.6°C 30.7°F-0.7°C 69% 6.0 mph SW9.7 kmh SW 15.0 mph24.1 kmh 29.85 in1010.8 mb 0.00 in0.0 mm 0.00 in0.0 mm 0.00 in0.0 mm
04:26 PM 40.2°F4.6°C 30.7°F-0.7°C 69% 14.0 mph SW22.5 kmh SW 18.0 mph29.0 kmh 29.85 in1010.8 mb 0.00 in0.0 mm 0.00 in0.0 mm 0.00 in0.0 mm
04:31 PM 40.1°F4.5°C 30.6°F-0.8°C 69% 6.0 mph SW9.7 kmh SW 18.0 mph29.0 kmh 29.86 in1011.2 mb 0.00 in0.0 mm 0.00 in0.0 mm 0.00 in0.0 mm
04:36 PM 40.2°F4.6°C 30.7°F-0.7°C 69% 6.0 mph SW9.7 kmh SW 18.0 mph29.0 kmh 29.86 in1011.2 mb 0.00 in0.0 mm 0.00 in0.0 mm 0.00 in0.0 mm
04:41 PM 40.1°F4.5°C 30.6°F-0.8°C 69% 8.0 mph SW12.9 kmh SW 18.0 mph29.0 kmh 29.86 in1011.2 mb 0.00 in0.0 mm 0.00 in0.0 mm 0.00 in0.0 mm
04:46 PM 40.0°F4.4°C 30.5°F-0.8°C 69% 5.0 mph S8.0 kmh S 15.0 mph24.1 kmh 29.86 in1011.2 mb 0.00 in0.0 mm 0.00 in0.0 mm 0.00 in0.0 mm
04:51 PM 40.0°F4.4°C 30.9°F-0.6°C 70% 20.0 mph WSW32.2 kmh WSW 20.0 mph32.2 kmh 29.86 in1011.2 mb 0.00 in0.0 mm 0.00 in0.0 mm 0.00 in0.0 mm
04:56 PM 39.9°F4.4°C 30.8°F-0.7°C 70% 6.0 mph WSW9.7 kmh WSW 20.0 mph32.2 kmh 29.87 in1011.5 mb 0.00 in0.0 mm 0.00 in0.0 mm 0.00 in0.0 mm
05:01 PM 39.9°F4.4°C 30.8°F-0.7°C 70% 6.0 mph WSW9.7 kmh WSW 20.0 mph32.2 kmh 29.87 in1011.5 mb 0.00 in0.0 mm 0.00 in0.0 mm 0.00 in0.0 mm
05:06 PM 39.9°F4.4°C 30.8°F-0.7°C 70% 6.0 mph WSW9.7 kmh WSW 20.0 mph32.2 kmh 29.87 in1011.5 mb 0.00 in0.0 mm 0.00 in0.0 mm 0.00 in0.0 mm
05:11 PM 39.8°F4.3°C 30.7°F-0.7°C 70% 14.0 mph WSW22.5 kmh WSW 20.0 mph32.2 kmh 29.87 in1011.5 mb 0.00 in0.0 mm 0.00 in0.0 mm 0.00 in0.0 mm
05:16 PM 39.8°F4.3°C 30.7°F-0.7°C 70% 7.0 mph SW11.3 kmh SW 20.0 mph32.2 kmh 29.87 in1011.5 mb 0.00 in0.0 mm 0.00 in0.0 mm 0.00 in0.0 mm
05:21 PM 39.8°F4.3°C 31.0°F-0.6°C 71% 8.0 mph SW12.9 kmh SW 20.0 mph32.2 kmh 29.88 in1011.9 mb 0.00 in0.0 mm 0.00 in0.0 mm 0.00 in0.0 mm
05:26 PM 39.7°F4.3°C 31.0°F-0.6°C 71% 6.0 mph SW9.7 kmh SW 20.0 mph32.2 kmh 29.88 in1011.9 mb 0.00 in0.0 mm 0.00 in0.0 mm 0.00 in0.0 mm
05:31 PM 39.7°F4.3°C 31.0°F-0.6°C 71% 4.0 mph WSW6.4 kmh WSW 13.0 mph20.9 kmh 29.88 in1011.9 mb 0.00 in0.0 mm 0.00 in0.0 mm 0.00 in0.0 mm
05:36 PM 39.6°F4.2°C 30.9°F-0.6°C 71% 7.0 mph WSW11.3 kmh WSW 13.0 mph20.9 kmh 29.89 in1012.2 mb 0.00 in0.0 mm 0.00 in0.0 mm 0.00 in0.0 mm
05:41 PM 39.6°F4.2°C 30.9°F-0.6°C 71% 4.0 mph SW6.4 kmh SW 14.0 mph22.5 kmh 29.89 in1012.2 mb 0.00 in0.0 mm 0.00 in0.0 mm 0.00 in0.0 mm
05:46 PM 39.6°F4.2°C 30.9°F-0.6°C 71% 6.0 mph SW9.7 kmh SW 14.0 mph22.5 kmh 29.89 in1012.2 mb 0.00 in0.0 mm 0.00 in0.0 mm 0.00 in0.0 mm
05:51 PM 39.6°F4.2°C 30.9°F-0.6°C 71% 6.0 mph WSW9.7 kmh WSW 15.0 mph24.1 kmh 29.89 in1012.2 mb 0.00 in0.0 mm 0.00 in0.0 mm 0.00 in0.0 mm
05:56 PM 39.6°F4.2°C 30.9°F-0.6°C 71% 5.0 mph SW8.0 kmh SW 15.0 mph24.1 kmh 29.89 in1012.2 mb 0.00 in0.0 mm 0.00 in0.0 mm 0.00 in0.0 mm
06:01 PM 39.5°F4.2°C 30.8°F-0.7°C 71% 5.0 mph WSW8.0 kmh WSW 15.0 mph24.1 kmh 29.89 in1012.2 mb 0.00 in0.0 mm 0.00 in0.0 mm 0.00 in0.0 mm
06:06 PM 39.6°F4.2°C 30.9°F-0.6°C 71% 3.0 mph SW4.8 kmh SW 15.0 mph24.1 kmh 29.90 in1012.5 mb 0.00 in0.0 mm 0.00 in0.0 mm 0.00 in0.0 mm
06:11 PM 39.5°F4.2°C 30.8°F-0.7°C 71% 10.0 mph WSW16.1 kmh WSW 13.0 mph20.9 kmh 29.90 in1012.5 mb 0.00 in0.0 mm 0.00 in0.0 mm 0.00 in0.0 mm
06:16 PM 39.6°F4.2°C 31.2°F-0.4°C 72% 6.0 mph SW9.7 kmh SW 14.0 mph22.5 kmh 29.90 in1012.5 mb 0.00 in0.0 mm 0.00 in0.0 mm 0.00 in0.0 mm
06:21 PM 39.6°F4.2°C 31.2°F-0.4°C 72% 8.0 mph WSW12.9 kmh WSW 14.0 mph22.5 kmh 29.90 in1012.5 mb 0.00 in0.0 mm 0.00 in0.0 mm 0.00 in0.0 mm
06:26 PM 39.6°F4.2°C 31.2°F-0.4°C 72% 6.0 mph SW9.7 kmh SW 15.0 mph24.1 kmh 29.90 in1012.5 mb 0.00 in0.0 mm 0.00 in0.0 mm 0.00 in0.0 mm
06:31 PM 39.5°F4.2°C 31.5°F-0.3°C 73% 5.0 mph SW8.0 kmh SW 15.0 mph24.1 kmh 29.90 in1012.5 mb 0.00 in0.0 mm 0.00 in0.0 mm 0.00 in0.0 mm
06:36 PM 39.4°F4.1°C 31.4°F-0.3°C 73% 6.0 mph SW9.7 kmh SW 15.0 mph24.1 kmh 29.90 in1012.5 mb 0.00 in0.0 mm 0.00 in0.0 mm 0.00 in0.0 mm
06:41 PM 39.4°F4.1°C 31.4°F-0.3°C 73% 10.0 mph WSW16.1 kmh WSW 15.0 mph24.1 kmh 29.90 in1012.5 mb 0.00 in0.0 mm 0.00 in0.0 mm 0.00 in0.0 mm
06:46 PM 39.3°F4.1°C 31.6°F-0.2°C 74% 5.0 mph WSW8.0 kmh WSW 13.0 mph20.9 kmh 29.90 in1012.5 mb 0.00 in0.0 mm 0.00 in0.0 mm 0.00 in0.0 mm
06:51 PM 39.3°F4.1°C 31.6°F-0.2°C 74% 7.0 mph SW11.3 kmh SW 13.0 mph20.9 kmh 29.90 in1012.5 mb 0.00 in0.0 mm 0.00 in0.0 mm 0.00 in0.0 mm
06:56 PM 39.2°F4.0°C 31.5°F-0.3°C 74% 7.0 mph WSW11.3 kmh WSW 12.0 mph19.3 kmh 29.90 in1012.5 mb 0.00 in0.0 mm 0.00 in0.0 mm 0.00 in0.0 mm
07:01 PM 39.2°F4.0°C 31.9°F-0.1°C 75% 9.0 mph WSW14.5 kmh WSW 12.0 mph19.3 kmh 29.91 in1012.9 mb 0.00 in0.0 mm 0.00 in0.0 mm 0.00 in0.0 mm
07:06 PM 39.2°F4.0°C 31.9°F-0.1°C 75% 4.0 mph SW6.4 kmh SW 12.0 mph19.3 kmh 29.91 in1012.9 mb 0.00 in0.0 mm 0.00 in0.0 mm 0.00 in0.0 mm
07:11 PM 39.2°F4.0°C 31.9°F-0.1°C 75% 3.0 mph WSW4.8 kmh WSW 12.0 mph19.3 kmh 29.91 in1012.9 mb 0.00 in0.0 mm 0.00 in0.0 mm 0.00 in0.0 mm
07:16 PM 39.2°F4.0°C 31.9°F-0.1°C 75% 4.0 mph SW6.4 kmh SW 12.0 mph19.3 kmh 29.91 in1012.9 mb 0.00 in0.0 mm 0.00 in0.0 mm 0.00 in0.0 mm
07:21 PM 39.2°F4.0°C 31.9°F-0.1°C 75% 4.0 mph SW6.4 kmh SW 12.0 mph19.3 kmh 29.91 in1012.9 mb 0.00 in0.0 mm 0.00 in0.0 mm 0.00 in0.0 mm
07:26 PM 39.1°F3.9°C 31.8°F-0.1°C 75% 8.0 mph WSW12.9 kmh WSW 11.0 mph17.7 kmh 29.91 in1012.9 mb 0.00 in0.0 mm 0.00 in0.0 mm 0.00 in0.0 mm
07:31 PM 39.1°F3.9°C 31.8°F-0.1°C 75% 3.0 mph WSW4.8 kmh WSW 11.0 mph17.7 kmh 29.91 in1012.9 mb 0.00 in0.0 mm 0.00 in0.0 mm 0.00 in0.0 mm
07:36 PM 39.2°F4.0°C 31.9°F-0.1°C 75% 9.0 mph WSW14.5 kmh WSW 13.0 mph20.9 kmh 29.91 in1012.9 mb 0.00 in0.0 mm 0.00 in0.0 mm 0.00 in0.0 mm
07:41 PM 39.1°F3.9°C 31.8°F-0.1°C 75% 10.0 mph WSW16.1 kmh WSW 13.0 mph20.9 kmh 29.91 in1012.9 mb 0.00 in0.0 mm 0.00 in0.0 mm 0.00 in0.0 mm
07:46 PM 39.1°F3.9°C 31.8°F-0.1°C 75% 10.0 mph WSW16.1 kmh WSW 18.0 mph29.0 kmh 29.91 in1012.9 mb 0.00 in0.0 mm 0.00 in0.0 mm 0.00 in0.0 mm
07:51 PM 39.2°F4.0°C 31.9°F-0.1°C 75% 9.0 mph SW14.5 kmh SW 18.0 mph29.0 kmh 29.91 in1012.9 mb 0.00 in0.0 mm 0.00 in0.0 mm 0.00 in0.0 mm
07:56 PM 39.1°F3.9°C 31.4°F-0.3°C 74% 7.0 mph SW11.3 kmh SW 19.0 mph30.6 kmh 29.91 in1012.9 mb 0.00 in0.0 mm 0.00 in0.0 mm 0.00 in0.0 mm
08:01 PM 39.1°F3.9°C 31.4°F-0.3°C 74% 12.0 mph WSW19.3 kmh WSW 19.0 mph30.6 kmh 29.91 in1012.9 mb 0.00 in0.0 mm 0.00 in0.0 mm 0.00 in0.0 mm
08:06 PM 39.1°F3.9°C 31.4°F-0.3°C 74% 14.0 mph WSW22.5 kmh WSW 19.0 mph30.6 kmh 29.91 in1012.9 mb 0.00 in0.0 mm 0.00 in0.0 mm 0.00 in0.0 mm
08:11 PM 39.1°F3.9°C 31.4°F-0.3°C 74% 10.0 mph WSW16.1 kmh WSW 19.0 mph30.6 kmh 29.91 in1012.9 mb 0.00 in0.0 mm 0.00 in0.0 mm 0.00 in0.0 mm
08:16 PM 39.1°F3.9°C 31.4°F-0.3°C 74% 13.0 mph WSW20.9 kmh WSW 19.0 mph30.6 kmh 29.91 in1012.9 mb 0.00 in0.0 mm 0.00 in0.0 mm 0.00 in0.0 mm
08:21 PM 39.1°F3.9°C 31.4°F-0.3°C 74% 11.0 mph WSW17.7 kmh WSW 19.0 mph30.6 kmh 29.92 in1013.2 mb 0.00 in0.0 mm 0.00 in0.0 mm 0.00 in0.0 mm
08:26 PM 39.1°F3.9°C 31.4°F-0.3°C 74% 16.0 mph WSW25.7 kmh WSW 19.0 mph30.6 kmh 29.92 in1013.2 mb 0.00 in0.0 mm 0.00 in0.0 mm 0.00 in0.0 mm
08:31 PM 39.0°F3.9°C 31.3°F-0.4°C 74% 9.0 mph W14.5 kmh W 19.0 mph30.6 kmh 29.91 in1012.9 mb 0.00 in0.0 mm 0.00 in0.0 mm 0.00 in0.0 mm
08:36 PM 39.0°F3.9°C 31.3°F-0.4°C 74% 12.0 mph SW19.3 kmh SW 18.0 mph29.0 kmh 29.91 in1012.9 mb 0.00 in0.0 mm 0.00 in0.0 mm 0.00 in0.0 mm
08:41 PM 39.0°F3.9°C 31.3°F-0.4°C 74% 14.0 mph SW22.5 kmh SW 18.0 mph29.0 kmh 29.91 in1012.9 mb 0.00 in0.0 mm 0.00 in0.0 mm 0.00 in0.0 mm
08:46 PM 39.1°F3.9°C 31.4°F-0.3°C 74% 12.0 mph WSW19.3 kmh WSW 18.0 mph29.0 kmh 29.91 in1012.9 mb 0.00 in0.0 mm 0.00 in0.0 mm 0.00 in0.0 mm
08:51 PM 39.0°F3.9°C 31.3°F-0.4°C 74% 8.0 mph SW12.9 kmh SW 18.0 mph29.0 kmh 29.91 in1012.9 mb 0.00 in0.0 mm 0.00 in0.0 mm 0.00 in0.0 mm
08:56 PM 39.0°F3.9°C 31.3°F-0.4°C 74% 9.0 mph WSW14.5 kmh WSW 18.0 mph29.0 kmh 29.91 in1012.9 mb 0.00 in0.0 mm 0.00 in0.0 mm 0.00 in0.0 mm
09:01 PM 39.0°F3.9°C 31.3°F-0.4°C 74% 15.0 mph SW24.1 kmh SW 18.0 mph29.0 kmh 29.92 in1013.2 mb 0.00 in0.0 mm 0.00 in0.0 mm 0.00 in0.0 mm
09:06 PM 39.0°F3.9°C 31.3°F-0.4°C 74% 14.0 mph WNW22.5 kmh WNW 23.0 mph37.0 kmh 29.92 in1013.2 mb 0.00 in0.0 mm 0.00 in0.0 mm 0.00 in0.0 mm
09:11 PM 39.0°F3.9°C 31.0°F-0.6°C 73% 9.0 mph WSW14.5 kmh WSW 23.0 mph37.0 kmh 29.92 in1013.2 mb 0.00 in0.0 mm 0.00 in0.0 mm 0.00 in0.0 mm
09:16 PM 39.0°F3.9°C 31.0°F-0.6°C 73% 10.0 mph W16.1 kmh W 23.0 mph37.0 kmh 29.92 in1013.2 mb 0.00 in0.0 mm 0.00 in0.0 mm 0.00 in0.0 mm
09:21 PM 39.0°F3.9°C 31.0°F-0.6°C 73% 12.0 mph W19.3 kmh W 23.0 mph37.0 kmh 29.92 in1013.2 mb 0.00 in0.0 mm 0.00 in0.0 mm 0.00 in0.0 mm
09:26 PM 39.0°F3.9°C 31.0°F-0.6°C 73% 12.0 mph WSW19.3 kmh WSW 18.0 mph29.0 kmh 29.92 in1013.2 mb 0.00 in0.0 mm 0.00 in0.0 mm 0.00 in0.0 mm
09:31 PM 39.0°F3.9°C 31.3°F-0.4°C 74% 15.0 mph WSW24.1 kmh WSW 18.0 mph29.0 kmh 29.92 in1013.2 mb 0.00 in0.0 mm 0.00 in0.0 mm 0.00 in0.0 mm
09:36 PM 38.9°F3.8°C 31.2°F-0.4°C 74% 12.0 mph W19.3 kmh W 18.0 mph29.0 kmh 29.92 in1013.2 mb 0.00 in0.0 mm 0.00 in0.0 mm 0.00 in0.0 mm
09:41 PM 38.9°F3.8°C 30.9°F-0.6°C 73% 15.0 mph W24.1 kmh W 18.0 mph29.0 kmh 29.93 in1013.5 mb 0.00 in0.0 mm 0.00 in0.0 mm 0.00 in0.0 mm
09:46 PM 38.9°F3.8°C 31.2°F-0.4°C 74% 10.0 mph WSW16.1 kmh WSW 18.0 mph29.0 kmh 29.93 in1013.5 mb 0.00 in0.0 mm 0.00 in0.0 mm 0.00 in0.0 mm
09:51 PM 39.0°F3.9°C 31.3°F-0.4°C 74% 13.0 mph WSW20.9 kmh WSW 15.0 mph24.1 kmh 29.93 in1013.5 mb 0.00 in0.0 mm 0.00 in0.0 mm 0.00 in0.0 mm
09:56 PM 39.0°F3.9°C 31.3°F-0.4°C 74% 11.0 mph WSW17.7 kmh WSW 15.0 mph24.1 kmh 29.93 in1013.5 mb 0.00 in0.0 mm 0.00 in0.0 mm 0.00 in0.0 mm
10:01 PM 39.0°F3.9°C 31.3°F-0.4°C 74% 11.0 mph WSW17.7 kmh WSW 16.0 mph25.7 kmh 29.93 in1013.5 mb 0.00 in0.0 mm 0.00 in0.0 mm 0.00 in0.0 mm
10:06 PM 39.0°F3.9°C 31.3°F-0.4°C 74% 12.0 mph WSW19.3 kmh WSW 20.0 mph32.2 kmh 29.93 in1013.5 mb 0.00 in0.0 mm 0.00 in0.0 mm 0.00 in0.0 mm
10:11 PM 39.1°F3.9°C 31.4°F-0.3°C 74% 17.0 mph WSW27.4 kmh WSW 20.0 mph32.2 kmh 29.93 in1013.5 mb 0.00 in0.0 mm 0.00 in0.0 mm 0.00 in0.0 mm
10:16 PM 39.1°F3.9°C 31.4°F-0.3°C 74% 9.0 mph WSW14.5 kmh WSW 20.0 mph32.2 kmh 29.93 in1013.5 mb 0.00 in0.0 mm 0.00 in0.0 mm 0.00 in0.0 mm
10:21 PM 39.1°F3.9°C 31.4°F-0.3°C 74% 7.0 mph WSW11.3 kmh WSW 20.0 mph32.2 kmh 29.93 in1013.5 mb 0.00 in0.0 mm 0.00 in0.0 mm 0.00 in0.0 mm
10:26 PM 39.1°F3.9°C 31.4°F-0.3°C 74% 11.0 mph W17.7 kmh W 17.0 mph27.4 kmh 29.93 in1013.5 mb 0.00 in0.0 mm 0.00 in0.0 mm 0.00 in0.0 mm
10:31 PM 39.1°F3.9°C 31.1°F-0.5°C 73% 8.0 mph WSW12.9 kmh WSW 17.0 mph27.4 kmh 29.93 in1013.5 mb 0.00 in0.0 mm 0.00 in0.0 mm 0.00 in0.0 mm
10:36 PM 39.2°F4.0°C 31.2°F-0.4°C 73% 16.0 mph WSW25.7 kmh WSW 16.0 mph25.7 kmh 29.93 in1013.5 mb 0.00 in0.0 mm 0.00 in0.0 mm 0.00 in0.0 mm
10:41 PM 39.2°F4.0°C 31.2°F-0.4°C 73% 10.0 mph W16.1 kmh W 17.0 mph27.4 kmh 29.93 in1013.5 mb 0.00 in0.0 mm 0.00 in0.0 mm 0.00 in0.0 mm
10:46 PM 39.2°F4.0°C 31.2°F-0.4°C 73% 9.0 mph WSW14.5 kmh WSW 20.0 mph32.2 kmh 29.94 in1013.9 mb 0.00 in0.0 mm 0.00 in0.0 mm 0.00 in0.0 mm
10:51 PM 39.2°F4.0°C 31.2°F-0.4°C 73% 16.0 mph WSW25.7 kmh WSW 20.0 mph32.2 kmh 29.94 in1013.9 mb 0.00 in0.0 mm 0.00 in0.0 mm 0.00 in0.0 mm
10:56 PM 39.2°F4.0°C 31.2°F-0.4°C 73% 11.0 mph W17.7 kmh W 20.0 mph32.2 kmh 29.94 in1013.9 mb 0.00 in0.0 mm 0.00 in0.0 mm 0.00 in0.0 mm
11:01 PM 39.3°F4.1°C 31.3°F-0.4°C 73% 13.0 mph WSW20.9 kmh WSW 20.0 mph32.2 kmh 29.94 in1013.9 mb 0.00 in0.0 mm 0.00 in0.0 mm 0.00 in0.0 mm
11:06 PM 39.3°F4.1°C 31.3°F-0.4°C 73% 13.0 mph WSW20.9 kmh WSW 20.0 mph32.2 kmh 29.94 in1013.9 mb 0.00 in0.0 mm 0.00 in0.0 mm 0.00 in0.0 mm
11:11 PM 39.3°F4.1°C 31.3°F-0.4°C 73% 8.0 mph W12.9 kmh W 20.0 mph32.2 kmh 29.94 in1013.9 mb 0.00 in0.0 mm 0.00 in0.0 mm 0.00 in0.0 mm
11:16 PM 39.3°F4.1°C 31.3°F-0.4°C 73% 10.0 mph WSW16.1 kmh WSW 20.0 mph32.2 kmh 29.95 in1014.2 mb 0.00 in0.0 mm 0.00 in0.0 mm 0.00 in0.0 mm
11:21 PM 39.2°F4.0°C 31.2°F-0.4°C 73% 13.0 mph W20.9 kmh W 20.0 mph32.2 kmh 29.94 in1013.9 mb 0.00 in0.0 mm 0.00 in0.0 mm 0.00 in0.0 mm
11:26 PM 39.2°F4.0°C 31.2°F-0.4°C 73% 9.0 mph WSW14.5 kmh WSW 17.0 mph27.4 kmh 29.95 in1014.2 mb 0.00 in0.0 mm 0.00 in0.0 mm 0.00 in0.0 mm
11:31 PM 39.2°F4.0°C 31.2°F-0.4°C 73% 13.0 mph WSW20.9 kmh WSW 18.0 mph29.0 kmh 29.95 in1014.2 mb 0.00 in0.0 mm 0.00 in0.0 mm 0.00 in0.0 mm
11:36 PM 39.2°F4.0°C 31.5°F-0.3°C 74% 15.0 mph W24.1 kmh W 18.0 mph29.0 kmh 29.95 in1014.2 mb 0.00 in0.0 mm 0.00 in0.0 mm 0.00 in0.0 mm
11:41 PM 39.1°F3.9°C 31.4°F-0.3°C 74% 6.0 mph W9.7 kmh W 18.0 mph29.0 kmh 29.95 in1014.2 mb 0.00 in0.0 mm 0.00 in0.0 mm 0.00 in0.0 mm
11:46 PM 39.1°F3.9°C 31.4°F-0.3°C 74% 9.0 mph W14.5 kmh W 21.0 mph33.8 kmh 29.95 in1014.2 mb 0.00 in0.0 mm 0.00 in0.0 mm 0.00 in0.0 mm
11:51 PM 39.1°F3.9°C 31.4°F-0.3°C 74% 15.0 mph W24.1 kmh W 21.0 mph33.8 kmh 29.95 in1014.2 mb 0.00 in0.0 mm 0.00 in0.0 mm 0.00 in0.0 mm
11:56 PM 39.1°F3.9°C 31.4°F-0.3°C 74% 9.0 mph W14.5 kmh W 21.0 mph33.8 kmh 29.95 in1014.2 mb 0.00 in0.0 mm 0.00 in0.0 mm 0.00 in0.0 mm